Village, Texas
Current Conditions -  °F | °C
As of 7:53 AM on Monday 22 Dec 2014 (Local Time) from KDAL Reporting Station
Few Clouds Few Clouds  
Wind Chill: 55°   Ceiling: Unl
Heat Index: 55°   Visibility: 10mi
Dew Point: 50°   Wind: 7mph
Humidity: 83%   Direction: 200°SSW
Pressure: 29.6"   Gusts: NA
Location:  32.8367°N, 96.796°W
Report Text: KDAL 221353Z 20006KT 10SM FEW012 FEW250 13/10 A2960 RMK AO2 SLP022 T01280100
Loading
Personal Weather Stations






























Interactive Weather Map New forecast layout! Learn more

10-Day Weather Forecast

Advertisements
Track Severe Weather on mobile